Time;durP1;ratioP1;P1;durP2;ratioP2;P2;SDS_P1;SDS_P2;PMS_P1;PMS_P2;Temp;Humidity;BMP_temperature;BMP_pressure;BME280_temperature;BME280_humidity;BME280_pressure;Samples;Min_cycle;Max_cycle;Signal;HPM_P1;HPM_P2
2022/09/01 00:01:19;;;;;;;17.77;16.10;;;16.40;99.90;;;;;;5069782;28;20535;-75
2022/09/01 00:03:47;;;;;;;18.45;16.65;;;16.20;99.90;;;;;;5067433;28;20527;-77
2022/09/01 00:06:21;;;;;;;18.42;16.70;;;16.20;99.90;;;;;;5069066;28;20222;-75
2022/09/01 00:08:54;;;;;;;17.65;16.10;;;16.00;99.90;;;;;;5065705;28;20223;-76
2022/09/01 00:11:21;;;;;;;18.00;16.23;;;15.90;99.90;;;;;;5068713;28;20288;-77
2022/09/01 00:13:48;;;;;;;18.67;16.80;;;16.40;99.90;;;;;;5069637;28;20173;-77
2022/09/01 00:16:15;;;;;;;20.33;18.45;;;16.10;99.90;;;;;;5070276;28;20181;-77
2022/09/01 00:18:42;;;;;;;20.17;18.17;;;16.30;99.90;;;;;;5071146;28;20641;-74
2022/09/01 00:21:09;;;;;;;19.33;17.55;;;16.00;99.90;;;;;;5069087;28;20274;-77
2022/09/01 00:23:35;;;;;;;20.80;17.10;;;16.00;99.90;;;;;;5058753;28;20247;-77
2022/09/01 00:26:00;;;;;;;18.58;16.75;;;16.20;99.90;;;;;;5072519;28;20268;-75
2022/09/01 00:28:26;;;;;;;19.13;17.33;;;16.20;99.90;;;;;;5070814;28;20220;-75
2022/09/01 00:30:52;;;;;;;17.83;16.00;;;15.80;99.90;;;;;;5068444;28;20270;-75
2022/09/01 00:33:18;;;;;;;21.03;18.93;;;15.70;99.90;;;;;;5068853;28;20593;-77
2022/09/01 00:35:43;;;;;;;19.65;17.60;;;15.70;99.90;;;;;;5062491;28;20188;-74
2022/09/01 00:38:09;;;;;;;22.63;19.27;;;16.40;99.90;;;;;;5069355;28;20200;-77
2022/09/01 00:40:35;;;;;;;22.47;18.50;;;16.00;99.90;;;;;;5066818;28;20193;-77
2022/09/01 00:43:09;;;;;;;20.70;18.67;;;16.00;99.90;;;;;;5069910;28;20212;-77
2022/09/01 00:45:34;;;;;;;19.92;17.90;;;15.90;99.90;;;;;;5069641;28;20185;-77
2022/09/01 00:48:00;;;;;;;19.90;18.00;;;15.50;99.90;;;;;;5067172;28;20208;-77
2022/09/01 00:50:26;;;;;;;18.87;17.10;;;15.80;99.90;;;;;;5069948;28;20192;-76
2022/09/01 00:52:54;;;;;;;20.23;18.47;;;15.70;99.90;;;;;;5072370;28;20185;-76
2022/09/01 00:55:27;;;;;;;22.95;17.48;;;15.90;99.90;;;;;;5071669;28;20207;-75
2022/09/01 00:57:53;;;;;;;18.58;16.67;;;16.00;99.90;;;;;;5065113;28;20616;-76
2022/09/01 01:00:22;;;;;;;19.83;18.03;;;15.80;99.90;;;;;;5070838;28;20272;-76
2022/09/01 01:02:54;;;;;;;19.52;17.80;;;15.70;99.90;;;;;;5072611;28;20438;-76
2022/09/01 01:05:26;;;;;;;18.00;16.30;;;15.90;99.90;;;;;;5067262;28;20265;-76
2022/09/01 01:07:53;;;;;;;19.40;17.60;;;15.90;99.90;;;;;;5069874;28;20304;-77
2022/09/01 01:10:21;;;;;;;20.90;18.20;;;16.40;99.90;;;;;;5064965;28;20181;-78
2022/09/01 01:12:50;;;;;;;19.13;17.33;;;16.00;99.90;;;;;;5070654;28;20868;-75
2022/09/01 01:15:16;;;;;;;19.75;17.98;;;16.00;99.90;;;;;;5071472;28;20193;-75
2022/09/01 01:17:42;;;;;;;20.25;18.25;;;15.90;99.90;;;;;;5069857;28;20209;-76
2022/09/01 01:23:06;;;;;;;19.13;17.23;;;15.90;99.90;;;;;;5071635;28;20191;-75
2022/09/01 01:25:32;;;;;;;20.98;18.98;;;15.80;99.90;;;;;;5068319;28;20754;-75
2022/09/01 01:28:17;;;;;;;20.50;18.30;;;15.80;99.90;;;;;;5067858;28;20177;-77
2022/09/01 01:30:49;;;;;;;19.63;17.63;;;15.90;99.90;;;;;;5068179;28;20212;-77
2022/09/01 01:33:16;;;;;;;20.10;17.77;;;15.20;99.90;;;;;;5068044;28;20184;-77
2022/09/01 01:35:42;;;;;;;20.05;18.05;;;15.70;99.90;;;;;;5070136;28;20263;-75
2022/09/01 01:38:08;;;;;;;20.38;18.45;;;15.60;99.90;;;;;;5067015;28;20264;-77
2022/09/01 01:40:35;;;;;;;21.03;19.03;;;16.00;99.90;;;;;;5070731;28;20646;-76
2022/09/01 01:43:02;;;;;;;21.13;19.13;;;15.50;99.90;;;;;;5069732;28;20173;-76
2022/09/01 01:45:28;;;;;;;19.42;17.55;;;15.60;99.90;;;;;;5066986;28;20563;-76
2022/09/01 01:47:55;;;;;;;20.00;18.05;;;15.60;99.90;;;;;;5067808;28;20223;-76
2022/09/01 01:50:34;;;;;;;19.77;17.77;;;15.50;99.90;;;;;;5061930;28;20185;-76
2022/09/01 01:53:04;;;;;;;20.75;18.85;;;15.70;99.90;;;;;;5070645;28;20642;-76
2022/09/01 01:55:30;;;;;;;19.02;17.23;;;15.50;99.90;;;;;;5070653;28;20204;-76
2022/09/01 01:57:57;;;;;;;18.60;16.90;;;15.50;99.90;;;;;;5064904;28;20657;-76
2022/09/01 02:00:33;;;;;;;18.40;16.70;;;15.50;99.90;;;;;;5070591;28;20932;-76
2022/09/01 02:02:59;;;;;;;19.90;17.98;;;15.50;99.90;;;;;;5070306;28;20208;-76
2022/09/01 02:05:31;;;;;;;19.38;17.48;;;15.50;99.90;;;;;;5071320;28;20180;-76
2022/09/01 02:08:03;;;;;;;18.25;16.55;;;15.40;99.90;;;;;;5057858;28;20189;-77
2022/09/01 02:10:32;;;;;;;20.08;18.08;;;15.30;99.90;;;;;;5067653;28;20671;-77
2022/09/01 02:13:05;;;;;;;18.40;16.60;;;15.50;99.90;;;;;;5070004;28;20706;-76
2022/09/01 02:15:41;;;;;;;18.90;17.23;;;15.30;99.90;;;;;;5066007;28;20555;-76
2022/09/01 02:18:06;;;;;;;19.48;17.67;;;15.50;99.90;;;;;;5064372;28;20184;-79
2022/09/01 02:20:32;;;;;;;19.23;17.27;;;15.50;99.90;;;;;;5069396;28;20184;-76
2022/09/01 02:23:08;;;;;;;18.43;16.63;;;15.60;99.90;;;;;;5069893;28;20262;-76
2022/09/01 02:25:34;;;;;;;19.50;17.50;;;15.00;99.90;;;;;;5066020;28;20186;-76
2022/09/01 02:28:03;;;;;;;19.75;17.80;;;15.20;99.90;;;;;;5065828;28;20182;-77
2022/09/01 02:30:31;;;;;;;19.48;17.50;;;15.70;99.90;;;;;;5066471;28;20621;-77
2022/09/01 02:32:58;;;;;;;17.60;16.05;;;15.60;99.90;;;;;;5070077;28;20173;-76
2022/09/01 02:35:27;;;;;;;20.35;18.33;;;14.80;99.90;;;;;;5069956;28;20192;-76
2022/09/01 02:37:59;;;;;;;17.88;16.17;;;15.40;99.90;;;;;;5067536;28;20176;-76
2022/09/01 02:40:29;;;;;;;19.27;17.40;;;15.30;99.90;;;;;;5064442;28;20184;-76
2022/09/01 02:42:55;;;;;;;22.40;18.27;;;15.40;99.90;;;;;;5070550;28;20543;-76
2022/09/01 02:45:23;;;;;;;19.15;17.35;;;15.70;99.90;;;;;;5067937;28;20184;-76
2022/09/01 02:47:50;;;;;;;18.90;16.88;;;15.20;99.90;;;;;;5064808;28;20679;-76
2022/09/01 02:50:17;;;;;;;18.23;16.42;;;15.60;99.90;;;;;;5068978;28;20637;-76
2022/09/01 02:52:48;;;;;;;22.25;18.25;;;15.40;99.90;;;;;;5066093;28;20217;-75
2022/09/01 02:55:20;;;;;;;19.88;17.88;;;15.60;99.90;;;;;;5069103;28;20210;-76
2022/09/01 02:57:48;;;;;;;18.75;16.55;;;15.30;99.90;;;;;;5067410;28;20180;-76
2022/09/01 03:00:30;;;;;;;19.45;17.45;;;15.40;99.90;;;;;;5067191;28;20212;-76
2022/09/01 03:02:58;;;;;;;17.95;16.05;;;15.50;99.90;;;;;;5066782;28;20185;-76
2022/09/01 03:05:28;;;;;;;18.33;16.45;;;15.40;99.90;;;;;;5068447;28;20548;-76
2022/09/01 03:07:56;;;;;;;18.73;17.00;;;15.00;99.90;;;;;;5068176;28;20196;-76
2022/09/01 03:10:31;;;;;;;20.50;18.50;;;15.90;99.90;;;;;;5069189;28;20180;-76
2022/09/01 03:12:59;;;;;;;21.10;18.90;;;15.20;99.90;;;;;;5063029;28;20172;-75
2022/09/01 03:15:25;;;;;;;19.95;18.08;;;14.60;99.90;;;;;;5063132;28;20672;-76
2022/09/01 03:17:51;;;;;;;20.95;18.85;;;15.20;99.90;;;;;;5067960;28;20281;-76
2022/09/01 03:20:20;;;;;;;18.97;17.17;;;15.10;99.90;;;;;;5068838;28;20601;-76
2022/09/01 03:22:47;;;;;;;19.02;17.17;;;15.30;99.90;;;;;;5067572;28;20853;-76
2022/09/01 03:25:13;;;;;;;20.70;18.52;;;15.30;99.90;;;;;;5061456;28;20593;-76
2022/09/01 03:27:39;;;;;;;20.80;18.70;;;15.30;99.90;;;;;;5067389;28;20230;-76
2022/09/01 03:30:05;;;;;;;20.33;18.07;;;15.30;99.90;;;;;;5060609;28;20212;-75
2022/09/01 03:32:31;;;;;;;20.48;18.45;;;15.00;99.90;;;;;;5069109;28;20471;-76
2022/09/01 03:34:57;;;;;;;20.80;18.80;;;15.10;99.90;;;;;;5069466;28;20183;-75
2022/09/01 03:37:23;;;;;;;20.60;18.60;;;14.90;99.90;;;;;;5067739;28;20230;-75
2022/09/01 03:39:48;;;;;;;21.30;19.20;;;14.90;99.90;;;;;;5067229;28;20798;-76
2022/09/01 03:42:26;;;;;;;19.77;17.87;;;15.90;99.90;;;;;;5063100;28;20193;-76
2022/09/01 03:44:52;;;;;;;19.40;17.60;;;14.80;99.90;;;;;;5068423;28;20271;-76
2022/09/01 03:47:20;;;;;;;20.63;18.17;;;14.90;99.90;;;;;;5068996;28;20639;-76
2022/09/01 03:49:48;;;;;;;22.45;19.45;;;14.90;99.90;;;;;;5061441;28;20208;-76
2022/09/01 03:52:14;;;;;;;20.20;18.20;;;14.90;99.90;;;;;;5068279;28;20200;-76
2022/09/01 03:54:40;;;;;;;22.33;19.80;;;14.90;99.90;;;;;;5071973;28;20263;-76
2022/09/01 03:57:08;;;;;;;21.83;19.53;;;15.00;99.90;;;;;;5066249;28;20276;-76
2022/09/01 03:59:42;;;;;;;21.33;19.33;;;15.10;99.90;;;;;;5062703;28;20492;-76
2022/09/01 04:02:07;;;;;;;21.17;19.10;;;14.90;99.90;;;;;;5070588;28;20185;-76
2022/09/01 04:04:33;;;;;;;19.97;17.80;;;14.90;99.90;;;;;;5071223;28;20552;-76
2022/09/01 04:07:01;;;;;;;20.63;18.50;;;14.90;99.90;;;;;;5072782;28;20247;-76
2022/09/01 04:09:27;;;;;;;22.05;17.85;;;15.00;99.90;;;;;;5072398;28;20196;-76
2022/09/01 04:11:53;;;;;;;19.07;17.30;;;14.90;99.90;;;;;;5064904;28;20299;-76
2022/09/01 04:14:19;;;;;;;19.10;17.30;;;14.90;99.90;;;;;;5068668;28;20185;-77
2022/09/01 04:19:35;;;;;;;20.25;18.27;;;14.80;99.90;;;;;;5069829;28;20496;-74
2022/09/01 04:22:01;;;;;;;19.88;18.02;;;14.60;99.90;;;;;;5065124;28;20189;-76
2022/09/01 04:24:29;;;;;;;20.43;18.27;;;15.00;99.90;;;;;;5070107;28;20672;-76
2022/09/01 04:26:59;;;;;;;19.50;17.65;;;15.00;99.90;;;;;;5070929;28;20442;-75
2022/09/01 04:29:28;;;;;;;20.38;18.33;;;15.00;99.90;;;;;;5070555;28;20220;-75
2022/09/01 04:31:55;;;;;;;18.27;16.58;;;14.80;99.90;;;;;;5071299;28;20207;-75
2022/09/01 04:34:23;;;;;;;22.30;20.13;;;14.90;99.90;;;;;;5073035;28;20585;-75
2022/09/01 04:36:55;;;;;;;21.25;18.13;;;14.80;99.90;;;;;;5072169;28;20222;-75
2022/09/01 04:39:22;;;;;;;21.17;19.08;;;14.70;99.90;;;;;;5063839;28;20213;-75
2022/09/01 04:41:49;;;;;;;20.95;18.75;;;14.60;99.90;;;;;;5062176;28;20550;-75
2022/09/01 04:44:17;;;;;;;21.02;18.88;;;14.80;99.90;;;;;;5069051;28;20181;-75
2022/09/01 04:46:49;;;;;;;20.20;18.27;;;15.80;99.90;;;;;;5065426;28;20185;-75
2022/09/01 04:49:19;;;;;;;19.90;17.60;;;14.70;99.90;;;;;;5068876;28;20215;-76
2022/09/01 04:51:48;;;;;;;20.30;18.25;;;14.80;99.90;;;;;;5069918;28;20257;-76
2022/09/01 04:54:15;;;;;;;22.40;20.15;;;14.70;99.90;;;;;;5062113;28;20550;-76
2022/09/01 04:56:43;;;;;;;20.48;18.45;;;14.80;99.90;;;;;;5067471;28;20173;-75
2022/09/01 04:59:10;;;;;;;21.17;19.08;;;15.00;99.90;;;;;;5068769;28;20227;-75
2022/09/01 05:01:44;;;;;;;20.05;18.15;;;14.70;99.90;;;;;;5063658;28;20310;-75
2022/09/01 05:04:21;;;;;;;29.75;24.45;;;14.60;99.90;;;;;;5067212;28;20235;-76
2022/09/01 05:06:50;;;;;;;19.55;17.55;;;14.80;99.90;;;;;;5071054;28;20193;-75
2022/09/01 05:09:17;;;;;;;19.30;16.63;;;15.10;99.90;;;;;;5068858;28;20209;-76
2022/09/01 05:11:44;;;;;;;20.30;18.30;;;15.20;99.90;;;;;;5059690;28;20259;-76
2022/09/01 05:14:11;;;;;;;19.30;17.40;;;14.90;99.90;;;;;;5071061;28;20176;-75
2022/09/01 05:16:39;;;;;;;20.00;18.00;;;14.80;99.90;;;;;;5069237;28;20177;-76
2022/09/01 05:19:06;;;;;;;22.60;19.80;;;15.50;99.90;;;;;;5071622;28;20201;-75
2022/09/01 05:21:32;;;;;;;20.95;17.80;;;15.20;99.90;;;;;;5066533;28;20202;-75
2022/09/01 05:24:00;;;;;;;18.90;16.95;;;15.20;99.90;;;;;;5063661;28;20559;-75
2022/09/01 05:26:30;;;;;;;20.00;18.00;;;15.20;99.90;;;;;;5069669;28;20559;-75
2022/09/01 05:29:00;;;;;;;21.38;18.85;;;15.60;99.90;;;;;;5064609;28;20213;-75
2022/09/01 05:31:32;;;;;;;19.48;17.55;;;15.60;99.90;;;;;;5070258;28;20710;-76
2022/09/01 05:33:57;;;;;;;20.63;18.50;;;15.20;99.90;;;;;;5065553;28;20596;-75
2022/09/01 05:36:25;;;;;;;19.50;17.70;;;15.00;99.90;;;;;;5061999;28;20196;-75
2022/09/01 05:38:51;;;;;;;20.42;18.25;;;15.70;99.90;;;;;;5066321;28;20205;-75
2022/09/01 05:41:19;;;;;;;19.87;18.07;;;15.50;99.90;;;;;;5070566;28;20335;-74
2022/09/01 05:43:47;;;;;;;19.05;16.98;;;15.80;99.90;;;;;;5069038;28;20652;-76
2022/09/01 05:46:16;;;;;;;19.38;17.58;;;15.50;99.90;;;;;;5067627;28;20579;-75
2022/09/01 05:48:43;;;;;;;20.17;18.17;;;15.80;99.90;;;;;;5067583;28;20209;-76
2022/09/01 05:51:10;;;;;;;20.40;18.05;;;16.40;99.90;;;;;;5069101;28;20784;-76
2022/09/01 05:53:36;;;;;;;19.00;17.10;;;15.70;99.90;;;;;;5066733;28;20185;-77
2022/09/01 05:56:08;;;;;;;19.63;17.60;;;16.30;99.90;;;;;;5064815;28;20939;-77
2022/09/01 05:58:34;;;;;;;20.88;18.77;;;16.00;99.90;;;;;;5068780;28;20197;-77
2022/09/01 06:01:00;;;;;;;22.70;19.75;;;16.00;99.90;;;;;;5068265;28;20196;-77
2022/09/01 06:03:27;;;;;;;22.50;20.30;;;15.80;99.90;;;;;;5061334;28;20182;-78
2022/09/01 06:05:56;;;;;;;20.95;18.85;;;15.80;99.90;;;;;;5065297;28;20197;-77
2022/09/01 06:08:24;;;;;;;21.27;19.08;;;16.00;99.90;;;;;;5065627;28;20215;-77
2022/09/01 06:10:53;;;;;;;20.85;18.85;;;15.90;99.90;;;;;;5066941;28;20208;-78
2022/09/01 06:13:20;;;;;;;20.95;18.50;;;15.90;99.90;;;;;;5065400;28;20181;-77
2022/09/01 06:15:47;;;;;;;20.02;18.08;;;16.60;99.90;;;;;;5068083;28;20271;-76
2022/09/01 06:18:14;;;;;;;19.08;17.17;;;16.50;99.90;;;;;;5067043;28;20207;-76
2022/09/01 06:20:41;;;;;;;18.52;16.75;;;19.00;99.90;;;;;;5066980;28;20180;-76
2022/09/01 06:23:08;;;;;;;19.13;17.42;;;16.60;99.90;;;;;;5065175;28;20181;-74
2022/09/01 06:25:38;;;;;;;19.60;17.50;;;17.00;99.90;;;;;;5064745;28;20180;-75
2022/09/01 06:28:04;;;;;;;19.42;17.52;;;17.00;99.90;;;;;;5061693;28;20566;-74
2022/09/01 06:30:35;;;;;;;19.83;18.02;;;17.20;99.90;;;;;;5064619;28;20629;-75
2022/09/01 06:33:01;;;;;;;20.35;18.23;;;17.50;99.90;;;;;;5066243;28;20637;-76
2022/09/01 06:35:28;;;;;;;20.70;18.70;;;17.40;99.90;;;;;;5062087;28;20260;-74
2022/09/01 06:37:57;;;;;;;18.55;16.75;;;18.70;99.90;;;;;;5064582;28;20776;-74
2022/09/01 06:40:24;;;;;;;21.30;18.13;;;17.40;99.90;;;;;;5069695;28;20216;-74
2022/09/01 06:42:51;;;;;;;19.08;17.30;;;17.70;99.90;;;;;;5069599;28;20280;-75
2022/09/01 06:45:20;;;;;;;18.13;16.40;;;18.00;99.90;;;;;;5067706;28;20180;-75
2022/09/01 06:47:47;;;;;;;20.10;18.15;;;18.50;99.90;;;;;;5068570;28;20189;-75
2022/09/01 06:50:15;;;;;;;17.30;15.65;;;18.40;99.90;;;;;;5060724;28;20580;-75
2022/09/01 06:52:41;;;;;;;17.88;16.38;;;18.30;99.90;;;;;;5061378;28;20196;-75
2022/09/01 06:55:13;;;;;;;19.10;17.27;;;19.00;99.90;;;;;;5062223;28;20530;-75
2022/09/01 06:57:40;;;;;;;16.27;14.77;;;18.20;99.90;;;;;;5066791;28;20657;-74
2022/09/01 07:00:19;;;;;;;18.48;16.70;;;18.70;99.90;;;;;;5058728;28;20231;-75
2022/09/01 07:02:54;;;;;;;17.05;15.55;;;18.90;99.90;;;;;;5064751;28;20187;-75
2022/09/01 07:05:20;;;;;;;19.30;16.58;;;19.30;99.90;;;;;;5067132;28;20184;-75
2022/09/01 07:07:50;;;;;;;15.75;14.35;;;18.90;99.90;;;;;;5068020;28;20215;-75
2022/09/01 07:10:21;;;;;;;15.45;13.85;;;19.40;99.90;;;;;;5065377;28;20191;-76
2022/09/01 07:12:49;;;;;;;16.13;14.43;;;19.60;99.90;;;;;;5057790;28;20349;-75
2022/09/01 07:15:16;;;;;;;15.48;14.07;;;19.00;99.90;;;;;;5066341;28;20657;-75
2022/09/01 07:17:47;;;;;;;16.20;14.70;;;19.40;99.90;;;;;;5066576;28;20257;-74
2022/09/01 07:20:14;;;;;;;14.23;12.93;;;20.00;99.90;;;;;;5072311;28;20197;-75
2022/09/01 07:22:40;;;;;;;13.00;11.80;;;20.70;99.90;;;;;;5067160;28;20178;-75
2022/09/01 07:25:11;;;;;;;13.43;12.13;;;22.50;99.90;;;;;;5059624;28;20443;-78
2022/09/01 07:27:38;;;;;;;13.07;11.73;;;24.20;98.70;;;;;;5059865;28;20271;-83
2022/09/01 07:30:07;;;;;;;12.87;11.67;;;24.60;96.40;;;;;;5066230;28;20476;-81
2022/09/01 07:32:33;;;;;;;13.23;12.13;;;24.30;96.30;;;;;;5069008;28;20861;-82
2022/09/01 07:34:59;;;;;;;13.50;12.30;;;25.00;95.00;;;;;;5062909;28;20447;-82
2022/09/01 07:37:26;;;;;;;12.93;11.83;;;24.50;95.10;;;;;;5065643;28;20261;-81
2022/09/01 07:39:51;;;;;;;13.00;11.90;;;24.20;96.20;;;;;;5062520;28;20456;-81
2022/09/01 07:42:19;;;;;;;13.13;12.00;;;23.60;96.00;;;;;;5066771;28;20450;-80
2022/09/01 07:44:44;;;;;;;13.80;12.50;;;23.20;96.70;;;;;;5065715;28;20189;-78
2022/09/01 07:47:10;;;;;;;13.30;11.90;;;22.90;97.20;;;;;;5058984;28;20453;-81
2022/09/01 07:49:36;;;;;;;13.80;12.50;;;22.70;98.40;;;;;;5067396;28;20684;-77
2022/09/01 07:52:03;;;;;;;13.03;11.93;;;22.10;99.10;;;;;;5077531;28;20481;-80
2022/09/01 07:54:30;;;;;;;13.30;12.00;;;21.90;99.90;;;;;;5063607;28;20800;-79
2022/09/01 07:56:56;;;;;;;17.55;15.90;;;22.40;99.90;;;;;;5064666;28;20459;-80
2022/09/01 07:59:21;;;;;;;17.50;15.93;;;21.90;99.90;;;;;;5061424;28;20208;-79
2022/09/01 08:01:48;;;;;;;12.83;11.47;;;21.90;99.90;;;;;;5066828;28;20260;-78
2022/09/01 08:04:14;;;;;;;13.35;11.52;;;21.60;99.90;;;;;;5057297;28;20439;-78
2022/09/01 08:06:39;;;;;;;16.77;15.07;;;22.10;99.90;;;;;;5065943;28;20184;-79
2022/09/01 08:09:09;;;;;;;12.73;11.57;;;21.90;99.90;;;;;;5062804;28;20574;-78
2022/09/01 08:11:35;;;;;;;12.07;10.88;;;22.40;99.90;;;;;;5067392;28;20249;-79
2022/09/01 08:14:01;;;;;;;15.17;12.83;;;21.50;99.90;;;;;;5062885;28;20177;-80
2022/09/01 08:16:28;;;;;;;12.03;11.03;;;20.90;99.90;;;;;;5065110;28;20208;-80
2022/09/01 08:18:53;;;;;;;12.05;11.05;;;21.40;99.90;;;;;;5062741;28;20253;-81
2022/09/01 08:21:22;;;;;;;10.97;10.07;;;20.90;99.90;;;;;;5060664;28;20204;-80
2022/09/01 08:23:49;;;;;;;12.55;11.40;;;20.80;99.90;;;;;;5064782;28;20204;-80
2022/09/01 08:26:17;;;;;;;12.02;10.82;;;20.80;99.90;;;;;;5065763;28;20231;-78
2022/09/01 08:28:43;;;;;;;11.60;10.50;;;20.70;99.90;;;;;;5065401;28;20293;-81
2022/09/01 08:31:11;;;;;;;10.53;9.53;;;20.70;99.90;;;;;;5062994;28;20258;-78
2022/09/01 08:33:39;;;;;;;12.25;10.57;;;20.70;99.90;;;;;;5066074;28;20189;-80
2022/09/01 08:36:07;;;;;;;10.05;9.15;;;20.60;99.90;;;;;;5066988;28;20676;-79
2022/09/01 08:38:33;;;;;;;10.38;9.38;;;20.40;99.90;;;;;;5062742;28;20205;-80
2022/09/01 08:41:02;;;;;;;9.95;9.05;;;20.80;99.90;;;;;;5066201;28;20295;-80
2022/09/01 08:43:42;;;;;;;10.55;9.55;;;20.90;99.90;;;;;;5068201;28;20188;-80
2022/09/01 08:46:24;;;;;;;12.90;11.77;;;20.60;99.90;;;;;;5058547;28;20243;-79
2022/09/01 08:49:07;;;;;;;9.85;8.93;;;20.70;99.90;;;;;;5066933;28;20748;-80
2022/09/01 08:52:19;;;;;;;10.18;9.30;;;20.70;99.90;;;;;;5069751;28;20311;-82
2022/09/01 08:55:26;;;;;;;10.73;9.73;;;20.80;99.90;;;;;;5045825;28;20635;-84
2022/09/01 08:57:54;;;;;;;9.27;8.38;;;20.90;99.90;;;;;;5051219;28;20193;-83
2022/09/01 09:00:24;;;;;;;9.50;8.70;;;21.00;99.90;;;;;;5070278;28;20182;-84
2022/09/01 09:03:08;;;;;;;9.40;8.55;;;21.00;99.90;;;;;;5067890;28;20853;-79
2022/09/01 09:06:10;;;;;;;9.23;8.43;;;21.00;99.90;;;;;;5062040;28;20187;-80
2022/09/01 09:08:54;;;;;;;9.55;8.65;;;21.20;99.90;;;;;;5066416;28;20712;-82
2022/09/01 09:11:38;;;;;;;9.73;8.73;;;21.50;99.90;;;;;;5064129;28;20217;-79
2022/09/01 09:14:26;;;;;;;8.95;8.25;;;21.70;99.90;;;;;;5066945;28;20177;-79
2022/09/01 09:16:54;;;;;;;9.07;8.27;;;21.60;99.90;;;;;;5056936;28;20191;-78
2022/09/01 09:19:29;;;;;;;7.50;6.90;;;21.50;99.90;;;;;;5067761;28;20667;-79
2022/09/01 09:21:58;;;;;;;7.78;7.07;;;21.40;99.90;;;;;;5067032;28;20185;-78
2022/09/01 09:24:56;;;;;;;8.55;7.85;;;21.90;99.90;;;;;;5068026;28;20192;-79
2022/09/01 09:27:24;;;;;;;8.13;7.47;;;21.40;99.90;;;;;;5061946;28;20551;-79
2022/09/01 09:29:56;;;;;;;10.90;10.00;;;22.00;99.90;;;;;;5067260;28;20871;-79
2022/09/01 09:32:23;;;;;;;3.70;3.30;;;21.70;99.70;;;;;;5061066;28;20228;-80
2022/09/01 09:34:49;;;;;;;7.65;6.95;;;21.60;99.90;;;;;;5069639;28;20188;-79
2022/09/01 09:37:18;;;;;;;8.07;7.37;;;21.90;99.90;;;;;;5070051;28;20687;-79
2022/09/01 09:39:43;;;;;;;9.00;8.10;;;22.60;99.90;;;;;;5067145;28;21003;-80
2022/09/01 09:42:12;;;;;;;6.50;5.93;;;21.90;99.90;;;;;;5068367;28;20196;-80
2022/09/01 09:44:47;;;;;;;4.95;4.50;;;22.40;99.90;;;;;;5065425;28;20186;-81
2022/09/01 09:47:32;;;;;;;5.87;5.37;;;22.50;99.90;;;;;;5058605;28;20188;-80
2022/09/01 09:50:17;;;;;;;8.53;3.60;;;23.00;99.30;;;;;;5068078;28;20573;-80
2022/09/01 09:52:45;;;;;;;9.00;8.20;;;23.50;98.70;;;;;;5069077;28;20515;-80
2022/09/01 09:55:23;;;;;;;8.40;7.50;;;24.00;97.50;;;;;;5067573;28;20438;-81
2022/09/01 09:57:50;;;;;;;4.70;4.40;;;24.40;95.80;;;;;;5069033;28;20522;-81
2022/09/01 10:00:24;;;;;;;8.37;7.57;;;24.40;96.00;;;;;;5068790;28;21355;-81
2022/09/01 10:02:56;;;;;;;7.97;7.33;;;24.50;95.00;;;;;;5066767;28;20475;-81
2022/09/01 10:05:37;;;;;;;4.77;4.43;;;24.60;93.80;;;;;;5070951;28;21035;-80
2022/09/01 10:08:05;;;;;;;7.33;6.73;;;24.40;94.80;;;;;;5065222;28;20948;-81
2022/09/01 10:10:44;;;;;;;6.77;6.27;;;25.00;94.30;;;;;;5066638;28;20542;-81
2022/09/01 10:13:18;;;;;;;6.00;5.50;;;24.40;93.50;;;;;;5068999;28;20544;-80
2022/09/01 10:15:48;;;;;;;5.10;4.70;;;24.20;94.50;;;;;;5069483;28;20494;-80
2022/09/01 10:18:18;;;;;;;5.20;4.80;;;25.40;94.80;;;;;;5070467;28;20518;-81
2022/09/01 10:20:55;;;;;;;4.93;4.60;;;23.90;93.90;;;;;;5069757;28;20467;-78
2022/09/01 10:23:20;;;;;;;4.73;4.43;;;24.00;93.70;;;;;;5058789;28;20789;-79
2022/09/01 10:25:49;;;;;;;6.30;5.80;;;24.00;93.30;;;;;;5068708;28;20457;-79
2022/09/01 10:28:18;;;;;;;6.20;5.70;;;24.30;92.30;;;;;;5070033;28;20203;-81
2022/09/01 10:30:46;;;;;;;6.83;6.33;;;24.10;92.90;;;;;;5065706;28;20939;-79
2022/09/01 10:33:14;;;;;;;5.10;4.70;;;23.80;93.40;;;;;;5058580;28;20900;-79
2022/09/01 10:35:46;;;;;;;4.83;4.43;;;23.70;93.70;;;;;;5070159;28;20910;-80
2022/09/01 10:38:21;;;;;;;4.80;4.40;;;23.80;94.30;;;;;;5062411;28;20487;-82
2022/09/01 10:41:05;;;;;;;5.80;5.40;;;24.00;94.50;;;;;;5064438;28;20442;-81
2022/09/01 10:43:46;;;;;;;6.90;6.40;;;24.20;93.10;;;;;;5062609;28;20475;-81
2022/09/01 10:46:18;;;;;;;7.90;7.10;;;24.50;93.40;;;;;;5058615;28;20554;-81
2022/09/01 10:48:45;;;;;;;4.03;3.73;;;25.00;92.60;;;;;;5067734;28;20533;-80
2022/09/01 10:51:14;;;;;;;6.10;5.60;;;25.20;91.90;;;;;;5064364;28;20486;-80
2022/09/01 10:53:53;;;;;;;4.83;4.53;;;25.10;92.90;;;;;;5059872;28;20433;-80
2022/09/01 10:56:42;;;;;;;5.13;4.73;;;24.60;90.30;;;;;;5068599;28;20437;-81
2022/09/01 10:59:27;;;;;;;3.60;3.30;;;24.30;90.90;;;;;;5071292;28;20459;-80
2022/09/01 11:01:53;;;;;;;4.80;4.50;;;24.30;92.50;;;;;;5068383;28;20494;-81
2022/09/01 11:04:21;;;;;;;4.60;4.30;;;24.20;90.40;;;;;;5067509;28;20534;-81
2022/09/01 11:06:49;;;;;;;4.73;4.40;;;23.90;91.10;;;;;;5069196;28;20614;-81
2022/09/01 11:09:18;;;;;;;4.33;4.00;;;24.30;91.20;;;;;;5063923;28;20499;-81
2022/09/01 11:12:13;;;;;;;4.30;3.90;;;24.90;90.20;;;;;;5064812;28;20499;-83
2022/09/01 11:14:51;;;;;;;4.73;4.43;;;24.70;88.80;;;;;;5050583;28;20442;-81
2022/09/01 11:17:58;;;;;;;3.90;3.60;;;24.70;89.00;;;;;;5066645;28;20522;-81
2022/09/01 11:20:28;;;;;;;4.30;4.00;;;24.10;90.60;;;;;;4969368;28;20916;-81
2022/09/01 11:23:11;;;;;;;4.33;4.03;;;24.60;91.40;;;;;;4988286;28;20430;-81
2022/09/01 11:25:55;;;;;;;4.30;3.90;;;24.50;90.90;;;;;;5031005;28;20547;-81
2022/09/01 11:28:23;;;;;;;4.60;4.30;;;24.50;92.10;;;;;;5067684;28;20852;-81
2022/09/01 11:30:55;;;;;;;5.93;5.43;;;24.60;92.30;;;;;;5069839;28;21014;-81
2022/09/01 11:33:39;;;;;;;5.57;5.07;;;24.60;92.10;;;;;;5061554;28;20452;-82
2022/09/01 11:36:27;;;;;;;3.97;3.67;;;24.60;92.50;;;;;;5057910;28;20928;-81
2022/09/01 11:39:25;;;;;;;4.23;3.93;;;24.40;93.10;;;;;;5068065;28;20476;-82
2022/09/01 11:42:02;;;;;;;4.63;4.33;;;24.30;93.30;;;;;;5065611;28;20446;-81
2022/09/01 11:44:35;;;;;;;4.60;4.20;;;24.20;91.20;;;;;;5066563;28;20434;-81
2022/09/01 11:47:06;;;;;;;4.30;4.00;;;24.10;91.50;;;;;;5064612;28;20427;-81
2022/09/01 11:49:38;;;;;;;4.40;4.10;;;24.10;90.70;;;;;;5066590;28;20458;-81
2022/09/01 11:52:05;;;;;;;4.60;4.30;;;24.30;91.60;;;;;;5062924;28;20966;-81
2022/09/01 11:54:42;;;;;;;4.80;4.47;;;24.60;90.30;;;;;;5066385;28;20853;-81
2022/09/01 11:57:22;;;;;;;4.23;3.93;;;25.20;89.40;;;;;;5067375;28;20441;-81
2022/09/01 11:59:49;;;;;;;4.80;4.43;;;25.90;86.80;;;;;;5067663;28;20978;-80
2022/09/01 12:02:24;;;;;;;4.93;4.53;;;26.30;85.20;;;;;;5064121;28;20462;-81
2022/09/01 12:04:53;;;;;;;4.00;3.70;;;26.00;85.10;;;;;;5068708;28;20430;-80
2022/09/01 12:07:46;;;;;;;3.97;3.67;;;26.20;81.40;;;;;;5065461;28;20827;-80
2022/09/01 12:10:26;;;;;;;4.80;4.37;;;26.70;80.60;;;;;;5052367;28;20564;-80
2022/09/01 12:13:10;;;;;;;3.90;3.60;;;25.80;81.10;;;;;;5071106;28;20468;-80
2022/09/01 12:15:41;;;;;;;5.00;4.70;;;25.30;84.10;;;;;;5073230;28;20445;-79
2022/09/01 12:18:20;;;;;;;4.30;4.00;;;24.90;84.90;;;;;;5067060;28;20481;-80
2022/09/01 12:20:48;;;;;;;4.50;4.10;;;24.80;84.80;;;;;;5061594;28;20448;-81
2022/09/01 12:23:25;;;;;;;4.53;4.23;;;24.90;85.00;;;;;;5069818;28;20982;-80
2022/09/01 12:25:54;;;;;;;4.63;4.33;;;24.70;83.90;;;;;;5063886;28;20553;-80
2022/09/01 12:28:22;;;;;;;4.10;3.90;;;24.30;85.50;;;;;;5071686;28;21021;-80
2022/09/01 12:30:48;;;;;;;4.40;4.10;;;24.30;85.90;;;;;;5072261;28;20458;-80
2022/09/01 12:33:17;;;;;;;4.83;3.50;;;24.40;86.50;;;;;;5067996;28;20439;-79
2022/09/01 12:35:44;;;;;;;4.13;3.83;;;24.90;87.10;;;;;;5072850;28;21016;-80
2022/09/01 12:38:35;;;;;;;5.40;5.10;;;25.00;86.50;;;;;;5065636;28;20443;-81
2022/09/01 12:41:01;;;;;;;4.73;4.33;;;24.70;84.90;;;;;;5058973;28;20435;-80
2022/09/01 12:43:38;;;;;;;4.87;4.47;;;24.50;87.90;;;;;;5072389;28;20488;-80
2022/09/01 12:46:09;;;;;;;4.77;4.47;;;24.40;88.80;;;;;;5066885;28;20649;-80
2022/09/01 12:48:37;;;;;;;4.33;4.03;;;24.00;90.00;;;;;;5068847;28;20455;-80
2022/09/01 12:51:24;;;;;;;4.10;3.80;;;23.90;90.60;;;;;;5068315;28;20454;-80
2022/09/01 12:53:56;;;;;;;5.07;4.67;;;23.80;91.00;;;;;;5061164;28;20449;-81
2022/09/01 12:56:32;;;;;;;3.73;3.53;;;23.70;90.20;;;;;;5068592;28;20486;-80